createdAt,value
2023-05-01T00:04:48.498Z,14.00
2023-05-01T00:09:51.995Z,10.95
2023-05-01T00:14:55.212Z,12.40
2023-05-01T00:19:58.228Z,12.05
2023-05-01T00:25:01.207Z,12.48
2023-05-01T00:30:04.196Z,12.93
2023-05-01T00:35:08.237Z,10.50
2023-05-01T00:40:11.465Z,12.70
2023-05-01T00:45:14.614Z,11.63
2023-05-01T00:50:17.405Z,9.02
2023-05-01T00:55:20.652Z,10.52
2023-05-01T01:00:24.937Z,9.73
2023-05-01T01:05:33.046Z,10.05
2023-05-01T01:10:51.682Z,9.48
2023-05-01T01:16:03.986Z,10.68
2023-05-01T01:21:15.760Z,8.98
2023-05-01T01:26:48.358Z,9.13
2023-05-01T01:31:56.817Z,9.70
2023-05-01T01:37:05.114Z,8.77
2023-05-01T01:42:11.429Z,11.00
2023-05-01T01:47:15.554Z,10.43
2023-05-01T01:52:20.645Z,9.02
2023-05-01T01:57:25.190Z,14.43
2023-05-01T02:02:31.323Z,11.55
2023-05-01T02:07:37.716Z,10.23
2023-05-01T02:12:42.836Z,10.02
2023-05-01T02:17:45.887Z,10.13
2023-05-01T02:22:50.815Z,11.63
2023-05-01T02:27:57.720Z,8.60
2023-05-01T02:33:00.485Z,10.27
2023-05-01T02:38:03.252Z,8.65
2023-05-01T02:43:11.231Z,8.73
2023-05-01T02:48:20.553Z,9.48
2023-05-01T02:53:24.211Z,8.20
2023-05-01T02:58:32.989Z,6.50
2023-05-01T03:03:35.733Z,8.88
2023-05-01T03:08:38.458Z,7.43
2023-05-01T03:13:41.225Z,7.55
2023-05-01T03:18:43.968Z,8.00
2023-05-01T03:23:47.026Z,5.78
2023-05-01T03:28:49.769Z,7.38
2023-05-01T03:33:52.685Z,7.65
2023-05-01T03:38:55.484Z,8.18
2023-05-01T03:44:30.057Z,9.18
2023-05-01T03:49:32.842Z,8.35
2023-05-01T03:54:35.711Z,8.55
2023-05-01T03:59:54.775Z,7.78
2023-05-01T04:04:57.754Z,7.25
2023-05-01T04:10:01.021Z,9.45
2023-05-01T04:15:04.915Z,6.85
2023-05-01T04:20:11.049Z,8.38
2023-05-01T04:25:14.605Z,7.85
2023-05-01T04:30:17.814Z,8.13
2023-05-01T04:35:20.714Z,8.60
2023-05-01T04:40:23.329Z,6.25
2023-05-01T04:45:26.866Z,8.23
2023-05-01T04:50:30.547Z,9.02
2023-05-01T04:55:33.560Z,6.97
2023-05-01T05:00:40.579Z,7.50
2023-05-01T05:05:49.349Z,8.30
2023-05-01T05:10:57.659Z,7.20
2023-05-01T05:16:23.569Z,8.03
2023-05-01T05:21:26.810Z,7.05
2023-05-01T05:26:31.683Z,9.07
2023-05-01T05:31:38.011Z,5.72
2023-05-01T05:36:41.084Z,6.70
2023-05-01T05:41:44.292Z,5.57
2023-05-01T05:46:47.796Z,5.82
2023-05-01T05:52:02.741Z,6.15
2023-05-01T05:57:05.490Z,8.70
2023-05-01T06:02:09.751Z,4.82
2023-05-01T06:07:12.463Z,6.80
2023-05-01T06:12:15.230Z,8.52
2023-05-01T06:17:18.235Z,6.22
2023-05-01T06:22:21.396Z,5.28
2023-05-01T06:27:36.283Z,6.60
2023-05-01T06:32:39.025Z,6.88
2023-05-01T06:37:41.842Z,7.43
2023-05-01T06:42:45.930Z,5.45
2023-05-01T06:47:48.594Z,7.78
2023-05-01T06:52:51.286Z,8.88
2023-05-01T06:57:54.016Z,7.97
2023-05-01T07:02:57.253Z,4.80
2023-05-01T07:08:01.970Z,6.85
2023-05-01T07:13:04.891Z,5.75
2023-05-01T07:18:10.296Z,7.95
2023-05-01T07:23:13.026Z,5.05
2023-05-01T07:28:18.222Z,6.75
2023-05-01T07:33:21.176Z,5.85
2023-05-01T07:38:23.926Z,5.40
2023-05-01T07:43:26.597Z,8.40
2023-05-01T07:48:29.553Z,8.00
2023-05-01T07:53:33.174Z,5.35
2023-05-01T07:58:37.284Z,6.15
2023-05-01T08:03:40.125Z,8.40
2023-05-01T08:08:43.062Z,5.60
2023-05-01T08:13:46.327Z,5.03
2023-05-01T08:18:49.090Z,5.13
2023-05-01T08:23:52.075Z,4.90
2023-05-01T08:28:54.657Z,8.52
2023-05-01T08:33:57.851Z,5.43
2023-05-01T08:39:00.638Z,3.75
2023-05-01T08:44:05.031Z,5.65
2023-05-01T08:49:11.626Z,6.57
2023-05-01T08:54:15.801Z,11.43
2023-05-01T08:59:19.480Z,7.25
2023-05-01T09:04:22.750Z,6.38
2023-05-01T09:09:25.597Z,6.32
2023-05-01T09:14:29.363Z,6.75
2023-05-01T09:19:32.497Z,7.47
2023-05-01T09:24:35.280Z,5.03
2023-05-01T09:29:42.506Z,5.10
2023-05-01T09:34:45.513Z,8.25
2023-05-01T09:39:48.431Z,6.38
2023-05-01T09:44:51.378Z,5.63
2023-05-01T09:49:56.326Z,5.63
2023-05-01T09:55:19.066Z,8.07
2023-05-01T10:00:22.407Z,4.82
2023-05-01T10:05:25.435Z,6.72
2023-05-01T10:10:28.414Z,5.80
2023-05-01T10:15:37.871Z,4.78
2023-05-01T10:20:40.757Z,4.60
2023-05-01T10:25:45.048Z,6.60
2023-05-01T10:30:49.493Z,4.25
2023-05-01T10:35:57.643Z,4.35
2023-05-01T10:41:00.362Z,3.25
2023-05-01T10:46:19.342Z,2.58
2023-05-01T10:51:26.606Z,2.72
2023-05-01T10:56:32.974Z,2.88
2023-05-01T11:01:40.696Z,2.58
2023-05-01T11:07:07.813Z,1.90
2023-05-01T11:12:12.318Z,2.33
2023-05-01T11:17:43.870Z,2.28
2023-05-01T11:22:47.460Z,3.67
2023-05-01T11:27:54.913Z,2.90
2023-05-01T11:32:57.622Z,4.43
2023-05-01T11:38:00.673Z,8.48
2023-05-01T11:43:06.033Z,4.45
2023-05-01T11:48:17.899Z,4.45
2023-05-01T11:53:20.960Z,2.45
2023-05-01T11:58:34.020Z,2.80
2023-05-01T12:03:43.304Z,2.45
2023-05-01T12:08:51.236Z,3.60
2023-05-01T12:13:54.157Z,4.18
2023-05-01T12:18:58.332Z,3.65
2023-05-01T12:24:11.839Z,3.00
2023-05-01T12:29:14.485Z,4.32
2023-05-01T12:34:17.482Z,4.47
2023-05-01T12:39:20.564Z,3.03
2023-05-01T12:44:30.045Z,4.00
2023-05-01T12:49:33.282Z,3.58
2023-05-01T12:54:38.042Z,3.70
2023-05-01T12:59:42.871Z,6.05
2023-05-01T13:04:47.129Z,6.68
2023-05-01T13:09:54.561Z,3.92
2023-05-01T13:14:57.520Z,3.40
2023-05-01T13:20:03.166Z,4.70
2023-05-01T13:25:25.595Z,3.70
2023-05-01T13:30:32.946Z,4.47
2023-05-01T13:35:36.120Z,5.07
2023-05-01T13:40:40.748Z,2.08
2023-05-01T13:45:43.541Z,2.65
2023-05-01T13:50:46.266Z,3.50
2023-05-01T13:55:48.962Z,2.08
2023-05-01T14:00:51.805Z,2.30
2023-05-01T14:05:54.649Z,3.10
2023-05-01T14:10:58.807Z,2.38
2023-05-01T14:16:03.211Z,4.63
2023-05-01T14:21:07.075Z,2.67
2023-05-01T14:26:11.534Z,2.45
2023-05-01T14:31:28.599Z,1.80
2023-05-01T14:36:32.804Z,4.80
2023-05-01T14:41:39.040Z,1.52
2023-05-01T14:46:47.506Z,1.80
2023-05-01T14:51:51.795Z,3.55
2023-05-01T14:56:54.571Z,5.22
2023-05-01T15:01:57.493Z,2.92
2023-05-01T15:07:00.137Z,5.97
2023-05-01T15:12:04.574Z,4.82
2023-05-01T15:17:09.521Z,2.33
2023-05-01T15:22:12.203Z,2.33
2023-05-01T15:27:14.847Z,3.45
2023-05-01T15:32:18.298Z,10.30
2023-05-01T15:37:21.464Z,2.90
2023-05-01T15:42:24.272Z,3.28
2023-05-01T15:47:27.434Z,3.00
2023-05-01T15:52:30.067Z,2.85
2023-05-01T15:57:34.867Z,3.80
2023-05-01T16:02:38.409Z,5.53
2023-05-01T16:07:41.541Z,3.90
2023-05-01T16:12:44.433Z,4.07
2023-05-01T16:17:48.121Z,4.15
2023-05-01T16:22:56.368Z,5.38
2023-05-01T16:28:04.801Z,3.22
2023-05-01T16:33:23.504Z,9.05
2023-05-01T16:38:27.615Z,3.35
2023-05-01T16:43:30.391Z,3.22
2023-05-01T16:48:35.043Z,7.90
2023-05-01T16:53:41.464Z,5.85
2023-05-01T16:58:44.925Z,2.30
2023-05-01T17:03:59.853Z,3.70
2023-05-01T17:09:02.613Z,4.07
2023-05-01T17:14:06.048Z,3.47
2023-05-01T17:19:10.058Z,3.80
2023-05-01T17:24:14.203Z,6.57
2023-05-01T17:29:17.098Z,6.88
2023-05-01T17:34:19.740Z,5.00
2023-05-01T17:39:22.531Z,5.70
2023-05-01T17:44:25.227Z,10.43
2023-05-01T17:49:27.891Z,6.38
2023-05-01T17:54:30.550Z,7.65
2023-05-01T17:59:33.230Z,5.97
2023-05-01T18:04:36.821Z,9.88
2023-05-01T18:09:40.969Z,12.65
2023-05-01T18:14:43.708Z,5.72
2023-05-01T18:19:46.526Z,9.93
2023-05-01T18:24:49.526Z,8.20
2023-05-01T18:29:53.786Z,7.95
2023-05-01T18:34:56.819Z,6.88
2023-05-01T18:40:00.559Z,5.95
2023-05-01T18:45:04.230Z,4.07
2023-05-01T18:50:08.287Z,4.95
2023-05-01T18:55:11.831Z,4.13
2023-05-01T19:00:17.660Z,5.18
2023-05-01T19:05:21.371Z,4.25
2023-05-01T19:11:10.449Z,5.25
2023-05-01T19:16:14.021Z,6.25
2023-05-01T19:21:16.891Z,5.78
2023-05-01T19:26:19.684Z,2.55
2023-05-01T19:31:22.405Z,4.60
2023-05-01T19:36:25.280Z,5.72
2023-05-01T19:41:28.022Z,2.30
2023-05-01T19:46:30.886Z,3.20
2023-05-01T19:51:34.079Z,4.10
2023-05-01T19:56:38.648Z,2.60
2023-05-01T20:01:41.595Z,2.90
2023-05-01T20:06:44.469Z,2.72
2023-05-01T20:11:47.255Z,2.90
2023-05-01T20:16:50.899Z,2.22
2023-05-01T20:21:54.322Z,4.15
2023-05-01T20:26:59.507Z,2.78
2023-05-01T20:32:02.398Z,4.47
2023-05-01T20:37:07.018Z,2.63
2023-05-01T20:42:09.862Z,3.55
2023-05-01T20:47:14.379Z,4.22
2023-05-01T20:52:17.226Z,4.13
2023-05-01T20:57:19.925Z,3.90
2023-05-01T21:02:22.733Z,2.67
2023-05-01T21:07:25.492Z,3.33
2023-05-01T21:12:28.920Z,4.10
2023-05-01T21:17:33.627Z,3.33
2023-05-01T21:22:37.020Z,5.60
2023-05-01T21:27:43.396Z,3.75
2023-05-01T21:32:46.075Z,5.43
2023-05-01T21:37:49.176Z,5.28
2023-05-01T21:42:54.215Z,2.35
2023-05-01T21:47:57.808Z,2.95
2023-05-01T21:53:00.612Z,3.33
2023-05-01T21:58:04.122Z,4.78
2023-05-01T22:03:08.793Z,3.97
2023-05-01T22:08:11.742Z,6.70
2023-05-01T22:13:14.391Z,4.95
2023-05-01T22:18:19.913Z,5.18
2023-05-01T22:23:22.704Z,5.78
2023-05-01T22:28:26.400Z,3.80
2023-05-01T22:33:29.089Z,3.60
2023-05-01T22:38:31.786Z,3.28
2023-05-01T22:43:34.717Z,4.28
2023-05-01T22:48:37.347Z,3.47
2023-05-01T22:53:40.046Z,3.35
2023-05-01T22:58:43.002Z,3.45
2023-05-01T23:03:45.885Z,3.22
2023-05-01T23:08:52.839Z,4.05
2023-05-01T23:13:55.510Z,5.70
2023-05-01T23:18:58.341Z,4.07
2023-05-01T23:24:01.597Z,2.15
2023-05-01T23:29:07.105Z,3.50
2023-05-01T23:34:09.910Z,4.25
2023-05-01T23:39:13.030Z,2.00
2023-05-01T23:44:15.659Z,2.65
2023-05-01T23:49:19.282Z,3.25
2023-05-01T23:54:21.870Z,6.88
2023-05-01T23:59:24.626Z,5.20
